createdAt,value
2022-12-19T00:01:38.379Z,35.70
2022-12-19T00:04:10.937Z,30.00
2022-12-19T00:06:43.907Z,29.40
2022-12-19T00:09:15.127Z,31.40
2022-12-19T00:11:44.193Z,24.10
2022-12-19T00:14:13.189Z,27.50
2022-12-19T00:16:42.786Z,28.10
2022-12-19T00:21:41.093Z,42.10
2022-12-19T00:24:20.919Z,34.40
2022-12-19T00:26:51.183Z,29.50
2022-12-19T00:29:20.873Z,36.10
2022-12-19T00:31:50.016Z,45.80
2022-12-19T00:34:18.951Z,30.40
2022-12-19T00:36:47.850Z,29.90
2022-12-19T00:39:17.970Z,24.90
2022-12-19T00:41:48.295Z,28.30
2022-12-19T00:44:17.409Z,27.20
2022-12-19T00:46:52.400Z,26.90
2022-12-19T00:49:23.676Z,25.50
2022-12-19T00:51:53.328Z,25.30
2022-12-19T00:54:23.730Z,30.30
2022-12-19T00:56:53.839Z,28.80
2022-12-19T00:59:26.708Z,25.00
2022-12-19T01:02:00.320Z,22.50
2022-12-19T01:04:38.252Z,22.00
2022-12-19T01:07:13.150Z,25.70
2022-12-19T01:09:43.720Z,28.40
2022-12-19T01:12:33.797Z,34.30
2022-12-19T01:15:05.295Z,36.00
2022-12-19T01:17:44.355Z,22.00
2022-12-19T01:20:20.242Z,23.70
2022-12-19T01:23:00.818Z,26.90
2022-12-19T01:25:33.220Z,22.80
2022-12-19T01:28:07.336Z,24.80
2022-12-19T01:30:40.879Z,29.60
2022-12-19T01:33:16.071Z,20.30
2022-12-19T01:35:47.604Z,16.70
2022-12-19T01:38:18.992Z,24.60
2022-12-19T01:40:57.370Z,37.70
2022-12-19T01:43:31.882Z,43.50
2022-12-19T01:46:05.104Z,30.50
2022-12-19T01:48:40.022Z,27.00
2022-12-19T01:51:19.526Z,31.90
2022-12-19T01:53:58.212Z,43.00
2022-12-19T01:56:35.230Z,25.40
2022-12-19T01:59:11.331Z,27.10
2022-12-19T02:01:51.125Z,28.00
2022-12-19T02:04:32.182Z,32.10
2022-12-19T02:07:15.374Z,32.10
2022-12-19T02:09:53.671Z,39.20
2022-12-19T02:12:35.570Z,21.70
2022-12-19T02:15:07.911Z,24.40
2022-12-19T02:17:48.241Z,25.80
2022-12-19T02:20:59.716Z,24.20
2022-12-19T02:23:44.251Z,30.20
2022-12-19T02:26:44.792Z,29.10
2022-12-19T02:32:31.505Z,34.90
2022-12-19T02:35:20.923Z,40.20
2022-12-19T02:37:54.565Z,37.70
2022-12-19T02:40:35.045Z,39.20
2022-12-19T02:43:08.667Z,39.40
2022-12-19T02:45:40.745Z,48.40
2022-12-19T02:48:16.156Z,35.10
2022-12-19T02:50:54.172Z,34.40
2022-12-19T02:53:24.820Z,38.50
2022-12-19T02:56:10.544Z,30.10
2022-12-19T02:58:53.330Z,37.90
2022-12-19T03:01:51.513Z,41.70
2022-12-19T03:04:44.070Z,32.70
2022-12-19T03:07:43.137Z,36.50
2022-12-19T03:10:34.751Z,34.20
2022-12-19T03:13:13.324Z,40.20
2022-12-19T03:15:45.306Z,50.20
2022-12-19T03:18:16.344Z,48.70
2022-12-19T03:23:21.498Z,43.70
2022-12-19T03:25:58.684Z,49.40
2022-12-19T03:28:53.009Z,46.40
2022-12-19T03:31:29.884Z,31.60
2022-12-19T03:34:03.886Z,38.00
2022-12-19T03:36:42.524Z,27.60
2022-12-19T03:39:15.331Z,25.20
2022-12-19T03:42:04.545Z,31.50
2022-12-19T03:44:39.101Z,27.70
2022-12-19T03:47:18.265Z,28.10
2022-12-19T03:49:49.124Z,38.80
2022-12-19T03:55:22.421Z,27.00
2022-12-19T03:57:58.733Z,44.40
2022-12-19T04:00:30.382Z,27.20
2022-12-19T04:03:03.507Z,39.40
2022-12-19T04:05:34.803Z,34.10
2022-12-19T04:08:08.281Z,47.40
2022-12-19T04:11:02.084Z,38.90
2022-12-19T04:13:39.630Z,32.50
2022-12-19T04:16:17.611Z,30.60
2022-12-19T04:18:53.957Z,32.40
2022-12-19T04:21:31.933Z,23.30
2022-12-19T04:24:10.344Z,38.40
2022-12-19T04:26:45.405Z,50.40
2022-12-19T04:29:16.744Z,38.30
2022-12-19T04:31:47.335Z,35.00
2022-12-19T04:34:21.359Z,48.20
2022-12-19T04:36:52.034Z,38.30
2022-12-19T04:39:21.639Z,35.90
2022-12-19T04:41:51.644Z,39.40
2022-12-19T04:44:22.933Z,29.50
2022-12-19T04:46:52.459Z,39.60
2022-12-19T04:49:21.797Z,22.30
2022-12-19T04:51:51.960Z,37.50
2022-12-19T04:54:22.384Z,33.60
2022-12-19T04:59:23.087Z,25.20
2022-12-19T05:01:52.376Z,25.10
2022-12-19T05:04:22.185Z,19.70
2022-12-19T05:06:51.924Z,42.90
2022-12-19T05:09:21.626Z,42.10
2022-12-19T05:11:51.535Z,27.80
2022-12-19T05:14:20.951Z,25.70
2022-12-19T05:16:49.749Z,36.60
2022-12-19T05:19:19.538Z,57.20
2022-12-19T05:21:49.398Z,33.20
2022-12-19T05:24:18.550Z,46.20
2022-12-19T05:26:49.485Z,34.50
2022-12-19T05:29:18.972Z,39.80
2022-12-19T05:31:48.311Z,36.30
2022-12-19T05:34:17.700Z,52.30
2022-12-19T05:36:47.268Z,51.80
2022-12-19T05:39:17.115Z,73.70
2022-12-19T05:41:49.040Z,43.20
2022-12-19T05:44:18.891Z,38.40
2022-12-19T05:46:47.795Z,42.70
2022-12-19T05:49:16.660Z,50.40
2022-12-19T05:51:45.547Z,49.40
2022-12-19T05:54:14.841Z,52.60
2022-12-19T05:56:43.941Z,59.30
2022-12-19T05:59:12.930Z,51.10
2022-12-19T06:01:42.631Z,68.60
2022-12-19T06:04:11.538Z,39.90
2022-12-19T06:06:40.639Z,56.80
2022-12-19T06:09:09.312Z,56.60
2022-12-19T06:11:38.511Z,52.20
2022-12-19T06:14:07.804Z,62.80
2022-12-19T06:16:36.628Z,52.70
2022-12-19T06:19:05.696Z,46.60
2022-12-19T06:21:34.677Z,68.40
2022-12-19T06:24:03.567Z,77.00
2022-12-19T06:26:32.779Z,49.70
2022-12-19T06:29:01.999Z,51.50
2022-12-19T06:31:31.712Z,51.40
2022-12-19T06:34:00.971Z,56.00
2022-12-19T06:36:31.455Z,67.10
2022-12-19T06:39:00.314Z,49.80
2022-12-19T06:41:48.233Z,47.60
2022-12-19T06:44:18.144Z,84.30
2022-12-19T06:46:46.826Z,66.80
2022-12-19T06:49:16.739Z,55.30
2022-12-19T06:51:46.377Z,65.60
2022-12-19T06:54:15.658Z,73.50
2022-12-19T06:56:45.259Z,83.40
2022-12-19T06:59:16.565Z,102.80
2022-12-19T07:01:51.143Z,118.20
2022-12-19T07:04:27.292Z,50.60
2022-12-19T07:06:56.066Z,83.00
2022-12-19T07:09:27.134Z,44.60
2022-12-19T07:11:56.006Z,113.50
2022-12-19T07:14:25.163Z,53.50
2022-12-19T07:16:55.521Z,76.30
2022-12-19T07:19:25.954Z,48.80
2022-12-19T07:21:56.073Z,61.80
2022-12-19T07:24:24.862Z,62.60
2022-12-19T07:26:53.722Z,61.30
2022-12-19T07:29:22.331Z,47.70
2022-12-19T07:31:51.668Z,41.50
2022-12-19T07:34:20.440Z,52.20
2022-12-19T07:36:49.208Z,43.10
2022-12-19T07:39:20.622Z,41.30
2022-12-19T07:41:49.155Z,46.30
2022-12-19T07:44:22.946Z,46.30
2022-12-19T07:46:51.624Z,53.10
2022-12-19T07:49:22.788Z,44.70
2022-12-19T07:51:52.000Z,36.90
2022-12-19T07:54:21.171Z,33.60
2022-12-19T07:56:50.561Z,30.40
2022-12-19T07:59:21.392Z,38.20
2022-12-19T08:01:53.525Z,28.70
2022-12-19T08:04:23.670Z,36.30
2022-12-19T08:06:52.404Z,30.90
2022-12-19T08:09:21.270Z,35.30
2022-12-19T08:11:50.149Z,33.30
2022-12-19T08:14:19.556Z,39.20
2022-12-19T08:17:18.838Z,41.20
2022-12-19T08:19:36.895Z,47.70
2022-12-19T08:22:05.579Z,43.70
2022-12-19T08:24:34.791Z,47.60
2022-12-19T08:27:03.671Z,42.30
2022-12-19T08:29:32.665Z,36.00
2022-12-19T08:32:01.353Z,28.70
2022-12-19T08:34:30.155Z,34.80
2022-12-19T08:36:58.930Z,28.80
2022-12-19T08:39:28.123Z,32.40
2022-12-19T08:41:56.928Z,29.30
2022-12-19T08:44:27.082Z,30.50
2022-12-19T08:46:55.724Z,31.90
2022-12-19T08:49:24.397Z,31.80
2022-12-19T08:51:53.184Z,28.60
2022-12-19T08:54:22.087Z,27.90
2022-12-19T08:56:51.076Z,27.10
2022-12-19T08:59:24.334Z,27.50
2022-12-19T09:02:02.355Z,27.00
2022-12-19T09:06:50.076Z,26.70
2022-12-19T09:09:21.257Z,25.10
2022-12-19T09:11:49.946Z,26.30
2022-12-19T09:14:21.278Z,24.70
2022-12-19T09:16:50.445Z,23.50
2022-12-19T09:19:19.680Z,26.10
2022-12-19T09:21:49.090Z,25.80
2022-12-19T09:24:17.889Z,24.70
2022-12-19T09:26:46.977Z,24.60
2022-12-19T09:29:20.610Z,22.50
2022-12-19T09:31:56.600Z,20.80
2022-12-19T09:34:36.900Z,21.40
2022-12-19T09:37:15.698Z,21.90
2022-12-19T09:39:48.808Z,22.30
2022-12-19T09:42:56.805Z,21.10
2022-12-19T09:45:49.264Z,25.10
2022-12-19T09:48:24.088Z,21.80
2022-12-19T09:51:32.404Z,20.50
2022-12-19T09:54:23.765Z,22.60
2022-12-19T09:56:58.953Z,21.70
2022-12-19T09:59:49.748Z,24.50
2022-12-19T10:02:48.847Z,21.50
2022-12-19T10:07:02.288Z,23.20
2022-12-19T10:08:31.996Z,21.90
2022-12-19T10:12:39.794Z,19.90
2022-12-19T10:14:19.753Z,21.00
2022-12-19T10:17:23.140Z,22.60
2022-12-19T10:20:11.291Z,21.00
2022-12-19T10:23:01.680Z,21.50
2022-12-19T10:26:09.684Z,21.50
2022-12-19T10:28:38.688Z,22.70
2022-12-19T10:31:22.355Z,22.20
2022-12-19T10:34:04.332Z,22.20
2022-12-19T10:37:12.928Z,22.00
2022-12-19T10:39:53.825Z,28.30
2022-12-19T10:43:09.376Z,26.70
2022-12-19T10:45:46.887Z,26.00
2022-12-19T10:48:31.088Z,23.90
2022-12-19T10:51:02.530Z,22.50
2022-12-19T10:53:35.774Z,21.40
2022-12-19T10:56:23.402Z,22.90
2022-12-19T10:58:58.871Z,19.30
2022-12-19T11:01:35.844Z,25.20
2022-12-19T11:04:36.779Z,25.40
2022-12-19T11:07:05.781Z,25.00
2022-12-19T11:09:48.173Z,21.10
2022-12-19T11:17:01.426Z,25.90
2022-12-19T11:23:04.584Z,20.70
2022-12-19T11:24:27.976Z,22.80
2022-12-19T11:29:30.653Z,23.10
2022-12-19T11:29:34.918Z,24.90
2022-12-19T11:30:38.846Z,22.50
2022-12-19T11:32:43.522Z,19.50
2022-12-19T11:35:25.354Z,22.40
2022-12-19T11:38:08.754Z,19.60
2022-12-19T11:40:48.714Z,22.20
2022-12-19T11:43:51.160Z,18.90
2022-12-19T11:46:45.964Z,24.10
2022-12-19T11:49:37.790Z,22.70
2022-12-19T11:52:37.029Z,16.40
2022-12-19T11:55:17.454Z,24.70
2022-12-19T11:57:47.654Z,19.40
2022-12-19T12:00:25.142Z,22.80
2022-12-19T12:03:41.734Z,22.40
2022-12-19T12:06:35.031Z,19.80
2022-12-19T12:14:00.592Z,24.30
2022-12-19T12:22:05.957Z,24.30
2022-12-19T12:31:01.331Z,23.60
2022-12-19T12:31:15.935Z,23.30
2022-12-19T12:31:27.718Z,25.60
2022-12-19T12:32:00.734Z,22.60
2022-12-19T12:32:04.345Z,19.60
2022-12-19T12:36:00.033Z,18.70
2022-12-19T12:39:25.536Z,17.20
2022-12-19T12:42:21.345Z,18.50
2022-12-19T12:44:53.310Z,19.10
2022-12-19T12:47:27.303Z,17.60
2022-12-19T12:49:55.930Z,20.80
2022-12-19T12:52:41.389Z,22.20
2022-12-19T12:55:27.791Z,22.70
2022-12-19T12:57:56.476Z,27.00
2022-12-19T13:00:36.214Z,23.00
2022-12-19T13:03:11.726Z,24.30
2022-12-19T13:05:46.387Z,23.40
2022-12-19T13:08:39.234Z,22.40
2022-12-19T13:11:36.299Z,23.00
2022-12-19T13:14:26.273Z,23.40
2022-12-19T13:19:28.762Z,28.10
2022-12-19T13:22:09.842Z,29.00
2022-12-19T13:24:58.701Z,27.20
2022-12-19T13:27:27.484Z,26.20
2022-12-19T13:30:10.837Z,25.00
2022-12-19T13:32:39.437Z,24.50
2022-12-19T13:36:27.801Z,23.80
2022-12-19T13:39:57.009Z,27.40
2022-12-19T13:41:27.270Z,22.00
2022-12-19T13:43:59.030Z,21.40
2022-12-19T13:46:39.759Z,21.70
2022-12-19T13:49:20.360Z,25.60
2022-12-19T13:51:54.932Z,21.70
2022-12-19T13:54:35.333Z,19.00
2022-12-19T13:57:09.305Z,24.70
2022-12-19T13:59:40.721Z,22.30
2022-12-19T14:02:43.753Z,24.60
2022-12-19T14:06:14.735Z,19.90
2022-12-19T14:08:25.826Z,26.80
2022-12-19T14:11:38.664Z,30.50
2022-12-19T14:14:17.816Z,23.30
2022-12-19T14:16:52.088Z,23.60
2022-12-19T14:19:24.268Z,20.50
2022-12-19T14:22:09.906Z,19.70
2022-12-19T14:28:14.305Z,21.60
2022-12-19T14:28:20.605Z,28.60
2022-12-19T14:33:44.910Z,35.30
2022-12-19T14:36:28.315Z,26.70
2022-12-19T14:39:25.990Z,34.30
2022-12-19T14:42:10.074Z,30.60
2022-12-19T14:54:02.605Z,30.10
2022-12-19T14:54:03.816Z,35.60
2022-12-19T14:54:22.570Z,33.10
2022-12-19T14:54:50.558Z,35.30
2022-12-19T14:59:06.415Z,34.40
2022-12-19T15:01:52.221Z,29.30
2022-12-19T15:04:51.738Z,29.30
2022-12-19T15:07:18.037Z,27.40
2022-12-19T15:11:04.818Z,28.70
2022-12-19T15:14:53.928Z,32.30
2022-12-19T15:16:06.115Z,31.50
2022-12-19T15:18:40.959Z,24.80
2022-12-19T15:21:14.452Z,28.30
2022-12-19T15:23:46.492Z,24.40
2022-12-19T15:26:18.411Z,29.80
2022-12-19T15:28:52.327Z,30.80
2022-12-19T15:31:36.273Z,33.90
2022-12-19T15:37:01.222Z,68.60
2022-12-19T15:39:30.526Z,68.40
2022-12-19T15:42:00.629Z,60.30
2022-12-19T15:47:32.603Z,43.90
2022-12-19T15:50:04.201Z,57.60
2022-12-19T15:52:32.963Z,42.90
2022-12-19T15:55:01.749Z,54.40
2022-12-19T15:57:34.476Z,51.00
2022-12-19T16:00:13.256Z,45.90
2022-12-19T16:03:21.332Z,57.10
2022-12-19T16:05:31.198Z,58.40
2022-12-19T16:08:00.115Z,61.00
2022-12-19T16:10:29.308Z,52.50
2022-12-19T16:12:58.806Z,58.10
2022-12-19T16:15:31.578Z,55.10
2022-12-19T16:18:03.256Z,42.60
2022-12-19T16:20:38.144Z,43.90
2022-12-19T16:23:08.200Z,43.60
2022-12-19T16:25:44.552Z,56.50
2022-12-19T16:28:28.804Z,48.30
2022-12-19T16:30:58.544Z,54.90
2022-12-19T16:33:29.899Z,43.40
2022-12-19T16:36:07.276Z,43.80
2022-12-19T16:38:37.164Z,60.50
2022-12-19T16:41:05.643Z,52.70
2022-12-19T16:43:39.480Z,42.80
2022-12-19T16:46:13.259Z,50.40
2022-12-19T16:48:41.842Z,68.20
2022-12-19T16:51:22.094Z,57.30
2022-12-19T16:53:53.165Z,69.80
2022-12-19T16:56:25.722Z,68.70
2022-12-19T16:58:56.453Z,71.00
2022-12-19T17:01:25.736Z,52.50
2022-12-19T17:03:54.838Z,73.90
2022-12-19T17:06:24.139Z,67.50
2022-12-19T17:08:52.721Z,57.50
2022-12-19T17:11:24.822Z,68.40
2022-12-19T17:14:00.848Z,90.70
2022-12-19T17:16:31.436Z,80.00
2022-12-19T17:19:00.566Z,61.70
2022-12-19T17:21:29.363Z,75.00
2022-12-19T17:23:58.048Z,70.50
2022-12-19T17:26:26.836Z,91.40
2022-12-19T17:28:56.138Z,94.80
2022-12-19T17:31:28.601Z,81.30
2022-12-19T17:33:58.612Z,63.00
2022-12-19T17:36:36.681Z,72.60
2022-12-19T17:39:19.247Z,55.60
2022-12-19T17:41:50.806Z,71.80
2022-12-19T17:44:19.489Z,82.30
2022-12-19T17:46:48.493Z,103.30
2022-12-19T17:49:23.616Z,114.10
2022-12-19T17:51:52.544Z,101.00
2022-12-19T17:54:21.906Z,115.30
2022-12-19T17:56:50.799Z,139.40
2022-12-19T17:59:19.925Z,124.70
2022-12-19T18:01:48.958Z,109.00
2022-12-19T18:04:20.032Z,73.60
2022-12-19T18:06:49.558Z,61.10
2022-12-19T18:09:23.483Z,70.50
2022-12-19T18:11:53.307Z,65.90
2022-12-19T18:14:22.139Z,68.40
2022-12-19T18:16:51.070Z,58.70
2022-12-19T18:19:23.806Z,68.60
2022-12-19T18:21:52.285Z,78.00
2022-12-19T18:24:21.385Z,67.80
2022-12-19T18:26:49.964Z,56.60
2022-12-19T18:29:18.552Z,85.30
2022-12-19T18:31:50.888Z,73.00
2022-12-19T18:34:23.840Z,60.40
2022-12-19T18:36:53.348Z,70.60
2022-12-19T18:39:24.888Z,71.10
2022-12-19T18:41:54.571Z,50.90
2022-12-19T18:44:23.683Z,74.90
2022-12-19T18:46:53.499Z,54.10
2022-12-19T18:49:23.204Z,87.30
2022-12-19T18:51:51.666Z,82.50
2022-12-19T18:54:22.451Z,63.60
2022-12-19T18:56:52.225Z,65.40
2022-12-19T18:59:20.805Z,66.30
2022-12-19T19:01:49.677Z,62.60
2022-12-19T19:04:18.605Z,62.70
2022-12-19T19:06:51.544Z,52.80
2022-12-19T19:09:23.016Z,34.00
2022-12-19T19:11:51.516Z,46.50
2022-12-19T19:14:20.186Z,52.90
2022-12-19T19:16:49.058Z,67.50
2022-12-19T19:19:19.213Z,57.40
2022-12-19T19:21:47.775Z,59.50
2022-12-19T19:24:19.280Z,59.90
2022-12-19T19:26:48.135Z,57.50
2022-12-19T19:29:19.226Z,35.80
2022-12-19T19:31:50.378Z,55.90
2022-12-19T19:34:24.777Z,59.90
2022-12-19T19:36:56.280Z,47.20
2022-12-19T19:39:25.701Z,46.50
2022-12-19T19:41:56.547Z,60.80
2022-12-19T19:44:25.095Z,69.90
2022-12-19T19:46:53.857Z,73.00
2022-12-19T19:49:22.973Z,66.40
2022-12-19T19:51:56.824Z,67.20
2022-12-19T19:54:29.156Z,67.70
2022-12-19T19:56:57.735Z,87.60
2022-12-19T19:59:31.157Z,73.90
2022-12-19T20:02:00.165Z,72.90
2022-12-19T20:04:29.593Z,59.90
2022-12-19T20:06:58.422Z,48.00
2022-12-19T20:09:27.728Z,41.30
2022-12-19T20:11:57.439Z,43.60
2022-12-19T20:14:26.993Z,57.60
2022-12-19T20:16:55.618Z,41.50
2022-12-19T20:19:24.401Z,46.90
2022-12-19T20:21:53.105Z,37.30
2022-12-19T20:24:21.774Z,35.40
2022-12-19T20:26:50.458Z,76.70
2022-12-19T20:29:19.253Z,86.50
2022-12-19T20:31:47.998Z,94.20
2022-12-19T20:34:17.549Z,100.00
2022-12-19T20:36:46.638Z,113.90
2022-12-19T20:39:17.112Z,93.40
2022-12-19T20:41:45.749Z,63.10
2022-12-19T20:44:17.573Z,58.40
2022-12-19T20:46:51.500Z,69.20
2022-12-19T20:49:20.407Z,65.20
2022-12-19T20:51:49.100Z,57.00
2022-12-19T20:54:18.602Z,67.50
2022-12-19T20:56:47.294Z,59.70
2022-12-19T20:59:16.618Z,68.90
2022-12-19T21:01:46.589Z,45.70
2022-12-19T21:04:16.161Z,60.30
2022-12-19T21:06:44.907Z,69.50
2022-12-19T21:09:13.621Z,78.20
2022-12-19T21:11:42.267Z,73.70
2022-12-19T21:14:12.328Z,74.10
2022-12-19T21:16:41.060Z,70.60
2022-12-19T21:21:41.819Z,52.10
2022-12-19T21:24:10.918Z,70.20
2022-12-19T21:26:39.707Z,47.30
2022-12-19T21:29:08.386Z,39.70
2022-12-19T21:31:37.194Z,40.10
2022-12-19T21:34:06.167Z,54.40
2022-12-19T21:36:34.858Z,35.80
2022-12-19T21:39:03.746Z,55.70
2022-12-19T21:41:32.656Z,69.00
2022-12-19T21:44:01.526Z,120.90
2022-12-19T21:46:35.702Z,122.40
2022-12-19T21:49:04.838Z,141.50
2022-12-19T21:51:33.738Z,134.80
2022-12-19T21:54:05.125Z,101.00
2022-12-19T21:56:39.397Z,105.40
2022-12-19T21:59:15.369Z,73.60
2022-12-19T22:01:44.882Z,66.00
2022-12-19T22:04:23.352Z,72.60
2022-12-19T22:06:52.933Z,71.90
2022-12-19T22:09:23.993Z,52.40
2022-12-19T22:11:52.833Z,61.50
2022-12-19T22:14:21.918Z,40.80
2022-12-19T22:16:51.053Z,47.00
2022-12-19T22:19:20.398Z,47.00
2022-12-19T22:21:49.602Z,81.00
2022-12-19T22:24:20.290Z,66.50
2022-12-19T22:26:49.326Z,76.70
2022-12-19T22:29:18.623Z,67.20
2022-12-19T22:31:48.449Z,59.20
2022-12-19T22:34:21.556Z,66.80
2022-12-19T22:36:50.842Z,67.40
2022-12-19T22:39:21.321Z,85.20
2022-12-19T22:41:51.077Z,69.50
2022-12-19T22:44:23.051Z,79.60
2022-12-19T22:46:53.343Z,56.30
2022-12-19T22:51:51.332Z,87.10
2022-12-19T22:54:20.019Z,67.60
2022-12-19T22:56:51.999Z,85.80
2022-12-19T22:59:21.308Z,85.20
2022-12-19T23:01:50.397Z,66.00
2022-12-19T23:04:19.455Z,63.80
2022-12-19T23:09:19.423Z,70.80
2022-12-19T23:11:49.839Z,61.50
2022-12-19T23:14:20.867Z,65.10
2022-12-19T23:16:50.061Z,72.80
2022-12-19T23:19:19.191Z,64.20
2022-12-19T23:21:48.268Z,73.80
2022-12-19T23:24:16.981Z,79.40
2022-12-19T23:26:46.656Z,65.10
2022-12-19T23:29:17.306Z,73.70
2022-12-19T23:31:48.004Z,73.60
2022-12-19T23:34:17.950Z,66.00
2022-12-19T23:39:36.815Z,72.90
2022-12-19T23:42:05.897Z,72.90
2022-12-19T23:44:35.340Z,76.10
2022-12-19T23:47:04.923Z,78.60
2022-12-19T23:49:34.889Z,80.20
2022-12-19T23:52:04.334Z,83.10
2022-12-19T23:54:33.939Z,73.60
2022-12-19T23:57:03.241Z,79.40
2022-12-19T23:59:32.333Z,63.00
